Driftwood, Washington
Current Conditions -  °F | °C
As of 7:28 AM on Thursday 23 Oct 2014 (Local Time) from KTCM Reporting Station
Light Rain Light Rain  
Wind Chill: 50°   Ceiling: 5500
Heat Index: 50°   Visibility: 10mi
Dew Point: 50°   Wind: 9mph
Humidity: 100%   Direction: 140°SE
Pressure: 29.75"   Gusts: NA
Location:  47.1874°N, 122.164°W
Report Text: KTCM 231428Z AUTO 14008KT 10SM -RA OVC055 10/10 A2975 RMK AO2 RAE1424 $
Loading
Personal Weather Stations






























Interactive Weather Map
Tropical Storm Tracking
New forecast layout! Learn more

10-Day Weather Forecast

Advertisements
Track Severe Weather on mobile